Training

Spin Video     https://www.youtube.com/watch?v=Vj8vdWBMePM&list=UULpWoZCi_X3hPwW6J_RsFEg     … [Read More...]

Weather

METAR FOR KCHA (Issued: Sat, February 28th 2015 2:53 PM UTC):
KCHA 281453Z 04003KT 10SM SCT140 BKN250 01/M08 A3061 RMK AO2 SLP371 T00111083 51016

Accomplishments

Hixson’s first Private Pilot of the year

Congratulation to Mr. Alan Kelley for  passing his Private Pilot Check Ride on 1-17-15. … [Read More...]

Congratulations

Congratulations Dr. John "Carter" Hemphil for successfully passing his instrument Checkride  Jan 10th 2015. … [Read More...]

Dallas Bay Skypark - 1A0